sensor_id;sensor_type;location;lat;lon;timestamp;P1;durP1;ratioP1;P2;durP2;ratioP2
79375;SDS011;68846;53.150;18.136;2023-04-15T00:00:13;8.90;;;6.80;;
79375;SDS011;68846;53.150;18.136;2023-04-15T00:03:01;9.60;;;6.80;;
79375;SDS011;68846;53.150;18.136;2023-04-15T00:05:29;8.50;;;6.80;;
79375;SDS011;68846;53.150;18.136;2023-04-15T00:07:57;8.70;;;6.30;;
79375;SDS011;68846;53.150;18.136;2023-04-15T00:10:26;9.00;;;6.80;;
79375;SDS011;68846;53.150;18.136;2023-04-15T00:12:53;10.30;;;7.40;;
79375;SDS011;68846;53.150;18.136;2023-04-15T00:15:20;10.40;;;7.40;;
79375;SDS011;68846;53.150;18.136;2023-04-15T00:17:49;9.00;;;7.60;;
79375;SDS011;68846;53.150;18.136;2023-04-15T00:20:17;10.50;;;7.70;;
79375;SDS011;68846;53.150;18.136;2023-04-15T00:22:44;11.40;;;7.60;;
79375;SDS011;68846;53.150;18.136;2023-04-15T00:25:11;11.10;;;7.00;;
79375;SDS011;68846;53.150;18.136;2023-04-15T00:27:39;9.80;;;7.20;;
79375;SDS011;68846;53.150;18.136;2023-04-15T00:30:06;10.00;;;6.80;;
79375;SDS011;68846;53.150;18.136;2023-04-15T00:32:34;11.30;;;7.30;;
79375;SDS011;68846;53.150;18.136;2023-04-15T00:35:01;11.00;;;7.30;;
79375;SDS011;68846;53.150;18.136;2023-04-15T00:37:28;10.30;;;7.20;;
79375;SDS011;68846;53.150;18.136;2023-04-15T00:39:56;11.50;;;8.40;;
79375;SDS011;68846;53.150;18.136;2023-04-15T00:42:23;11.70;;;8.00;;
79375;SDS011;68846;53.150;18.136;2023-04-15T00:44:51;13.10;;;8.50;;
79375;SDS011;68846;53.150;18.136;2023-04-15T00:47:18;11.40;;;8.60;;
79375;SDS011;68846;53.150;18.136;2023-04-15T00:49:46;11.40;;;7.20;;
79375;SDS011;68846;53.150;18.136;2023-04-15T00:52:13;12.90;;;8.00;;
79375;SDS011;68846;53.150;18.136;2023-04-15T00:57:08;10.80;;;7.90;;
79375;SDS011;68846;53.150;18.136;2023-04-15T00:59:35;11.00;;;7.40;;
79375;SDS011;68846;53.150;18.136;2023-04-15T01:02:02;11.80;;;7.40;;
79375;SDS011;68846;53.150;18.136;2023-04-15T01:04:30;11.40;;;6.80;;
79375;SDS011;68846;53.150;18.136;2023-04-15T01:06:57;9.00;;;6.70;;
79375;SDS011;68846;53.150;18.136;2023-04-15T01:09:24;9.50;;;7.20;;
79375;SDS011;68846;53.150;18.136;2023-04-15T01:11:51;11.50;;;7.60;;
79375;SDS011;68846;53.150;18.136;2023-04-15T01:14:19;9.90;;;7.90;;
79375;SDS011;68846;53.150;18.136;2023-04-15T01:16:46;11.20;;;7.80;;
79375;SDS011;68846;53.150;18.136;2023-04-15T01:19:13;11.70;;;8.20;;
79375;SDS011;68846;53.150;18.136;2023-04-15T01:21:43;9.70;;;7.10;;
79375;SDS011;68846;53.150;18.136;2023-04-15T01:24:10;10.30;;;8.10;;
79375;SDS011;68846;53.150;18.136;2023-04-15T01:26:39;12.10;;;7.50;;
79375;SDS011;68846;53.150;18.136;2023-04-15T01:29:08;9.50;;;7.80;;
79375;SDS011;68846;53.150;18.136;2023-04-15T01:31:35;10.40;;;7.30;;
79375;SDS011;68846;53.150;18.136;2023-04-15T01:34:02;10.70;;;7.00;;
79375;SDS011;68846;53.150;18.136;2023-04-15T01:36:30;10.40;;;7.60;;
79375;SDS011;68846;53.150;18.136;2023-04-15T01:38:57;10.70;;;7.60;;
79375;SDS011;68846;53.150;18.136;2023-04-15T01:41:25;10.70;;;7.70;;
79375;SDS011;68846;53.150;18.136;2023-04-15T01:43:52;11.70;;;7.80;;
79375;SDS011;68846;53.150;18.136;2023-04-15T01:46:19;11.60;;;8.40;;
79375;SDS011;68846;53.150;18.136;2023-04-15T01:48:46;9.70;;;7.10;;
79375;SDS011;68846;53.150;18.136;2023-04-15T01:51:13;11.90;;;7.30;;
79375;SDS011;68846;53.150;18.136;2023-04-15T01:56:08;11.90;;;8.30;;
79375;SDS011;68846;53.150;18.136;2023-04-15T02:01:02;11.10;;;7.50;;
79375;SDS011;68846;53.150;18.136;2023-04-15T02:03:31;12.30;;;7.40;;
79375;SDS011;68846;53.150;18.136;2023-04-15T02:05:59;10.10;;;7.00;;
79375;SDS011;68846;53.150;18.136;2023-04-15T02:08:28;11.30;;;6.60;;
79375;SDS011;68846;53.150;18.136;2023-04-15T02:10:55;11.10;;;6.40;;
79375;SDS011;68846;53.150;18.136;2023-04-15T02:15:49;8.70;;;6.30;;
79375;SDS011;68846;53.150;18.136;2023-04-15T02:18:19;9.80;;;6.40;;
79375;SDS011;68846;53.150;18.136;2023-04-15T02:20:46;8.80;;;7.00;;
79375;SDS011;68846;53.150;18.136;2023-04-15T02:23:13;8.00;;;6.10;;
79375;SDS011;68846;53.150;18.136;2023-04-15T02:25:43;8.60;;;7.30;;
79375;SDS011;68846;53.150;18.136;2023-04-15T02:28:10;8.80;;;6.50;;
79375;SDS011;68846;53.150;18.136;2023-04-15T02:33:04;9.60;;;6.40;;
79375;SDS011;68846;53.150;18.136;2023-04-15T02:35:32;11.00;;;6.10;;
79375;SDS011;68846;53.150;18.136;2023-04-15T02:37:59;11.80;;;6.70;;
79375;SDS011;68846;53.150;18.136;2023-04-15T02:40:29;8.00;;;5.80;;
79375;SDS011;68846;53.150;18.136;2023-04-15T02:42:55;9.60;;;6.30;;
79375;SDS011;68846;53.150;18.136;2023-04-15T02:47:53;10.00;;;6.60;;
79375;SDS011;68846;53.150;18.136;2023-04-15T02:50:20;8.90;;;6.40;;
79375;SDS011;68846;53.150;18.136;2023-04-15T02:52:49;10.00;;;7.20;;
79375;SDS011;68846;53.150;18.136;2023-04-15T02:55:16;8.60;;;6.90;;
79375;SDS011;68846;53.150;18.136;2023-04-15T02:57:43;10.10;;;6.70;;
79375;SDS011;68846;53.150;18.136;2023-04-15T03:00:10;13.80;;;6.70;;
79375;SDS011;68846;53.150;18.136;2023-04-15T03:02:40;9.10;;;6.10;;
79375;SDS011;68846;53.150;18.136;2023-04-15T03:05:11;8.70;;;6.10;;
79375;SDS011;68846;53.150;18.136;2023-04-15T03:07:41;10.10;;;6.00;;
79375;SDS011;68846;53.150;18.136;2023-04-15T03:12:36;9.70;;;5.80;;
79375;SDS011;68846;53.150;18.136;2023-04-15T03:15:03;9.30;;;6.30;;
79375;SDS011;68846;53.150;18.136;2023-04-15T03:17:35;8.80;;;6.60;;
79375;SDS011;68846;53.150;18.136;2023-04-15T03:20:03;8.50;;;6.40;;
79375;SDS011;68846;53.150;18.136;2023-04-15T03:22:31;10.20;;;6.90;;
79375;SDS011;68846;53.150;18.136;2023-04-15T03:24:59;10.30;;;6.80;;
79375;SDS011;68846;53.150;18.136;2023-04-15T03:27:25;9.00;;;7.20;;
79375;SDS011;68846;53.150;18.136;2023-04-15T03:29:53;9.30;;;6.50;;
79375;SDS011;68846;53.150;18.136;2023-04-15T03:32:23;8.20;;;6.30;;
79375;SDS011;68846;53.150;18.136;2023-04-15T03:34:50;8.10;;;6.60;;
79375;SDS011;68846;53.150;18.136;2023-04-15T03:37:17;10.20;;;6.70;;
79375;SDS011;68846;53.150;18.136;2023-04-15T03:39:45;8.10;;;5.70;;
79375;SDS011;68846;53.150;18.136;2023-04-15T03:42:12;8.20;;;6.20;;
79375;SDS011;68846;53.150;18.136;2023-04-15T03:44:39;7.80;;;6.30;;
79375;SDS011;68846;53.150;18.136;2023-04-15T03:47:06;11.50;;;6.00;;
79375;SDS011;68846;53.150;18.136;2023-04-15T03:49:34;10.80;;;7.00;;
79375;SDS011;68846;53.150;18.136;2023-04-15T03:52:01;9.00;;;7.10;;
79375;SDS011;68846;53.150;18.136;2023-04-15T03:54:28;8.70;;;6.50;;
79375;SDS011;68846;53.150;18.136;2023-04-15T03:59:22;7.90;;;6.30;;
79375;SDS011;68846;53.150;18.136;2023-04-15T04:01:49;10.00;;;6.30;;
79375;SDS011;68846;53.150;18.136;2023-04-15T04:04:16;9.30;;;6.10;;
79375;SDS011;68846;53.150;18.136;2023-04-15T04:06:43;8.90;;;6.90;;
79375;SDS011;68846;53.150;18.136;2023-04-15T04:11:37;7.80;;;5.60;;
79375;SDS011;68846;53.150;18.136;2023-04-15T04:16:31;8.30;;;6.00;;
79375;SDS011;68846;53.150;18.136;2023-04-15T04:21:24;9.80;;;6.10;;
79375;SDS011;68846;53.150;18.136;2023-04-15T04:23:52;9.30;;;6.40;;
79375;SDS011;68846;53.150;18.136;2023-04-15T04:28:46;9.40;;;6.60;;
79375;SDS011;68846;53.150;18.136;2023-04-15T04:31:12;9.70;;;7.00;;
79375;SDS011;68846;53.150;18.136;2023-04-15T04:33:39;12.00;;;6.50;;
79375;SDS011;68846;53.150;18.136;2023-04-15T04:36:06;9.30;;;5.90;;
79375;SDS011;68846;53.150;18.136;2023-04-15T04:38:33;9.20;;;6.30;;
79375;SDS011;68846;53.150;18.136;2023-04-15T04:41:00;9.90;;;6.40;;
79375;SDS011;68846;53.150;18.136;2023-04-15T04:43:27;10.00;;;6.80;;
79375;SDS011;68846;53.150;18.136;2023-04-15T04:45:54;9.20;;;6.40;;
79375;SDS011;68846;53.150;18.136;2023-04-15T04:48:21;10.40;;;6.80;;
79375;SDS011;68846;53.150;18.136;2023-04-15T04:50:48;8.20;;;6.10;;
79375;SDS011;68846;53.150;18.136;2023-04-15T04:53:15;9.90;;;6.90;;
79375;SDS011;68846;53.150;18.136;2023-04-15T04:55:42;10.50;;;7.10;;
79375;SDS011;68846;53.150;18.136;2023-04-15T04:58:09;8.90;;;6.80;;
79375;SDS011;68846;53.150;18.136;2023-04-15T05:00:36;10.30;;;6.70;;
79375;SDS011;68846;53.150;18.136;2023-04-15T05:03:03;11.50;;;6.70;;
79375;SDS011;68846;53.150;18.136;2023-04-15T05:05:30;9.00;;;6.40;;
79375;SDS011;68846;53.150;18.136;2023-04-15T05:10:24;9.10;;;6.40;;
79375;SDS011;68846;53.150;18.136;2023-04-15T05:12:51;9.90;;;6.50;;
79375;SDS011;68846;53.150;18.136;2023-04-15T05:15:18;10.30;;;6.80;;
79375;SDS011;68846;53.150;18.136;2023-04-15T05:20:12;10.00;;;6.70;;
79375;SDS011;68846;53.150;18.136;2023-04-15T05:22:39;10.00;;;6.60;;
79375;SDS011;68846;53.150;18.136;2023-04-15T05:25:07;8.70;;;6.40;;
79375;SDS011;68846;53.150;18.136;2023-04-15T05:27:35;9.20;;;6.70;;
79375;SDS011;68846;53.150;18.136;2023-04-15T05:30:02;11.10;;;7.20;;
79375;SDS011;68846;53.150;18.136;2023-04-15T05:32:29;9.10;;;6.90;;
79375;SDS011;68846;53.150;18.136;2023-04-15T05:37:22;9.70;;;6.50;;
79375;SDS011;68846;53.150;18.136;2023-04-15T05:39:49;11.30;;;7.60;;
79375;SDS011;68846;53.150;18.136;2023-04-15T05:42:16;10.00;;;7.00;;
79375;SDS011;68846;53.150;18.136;2023-04-15T05:47:10;10.30;;;6.70;;
79375;SDS011;68846;53.150;18.136;2023-04-15T05:49:37;11.20;;;7.20;;
79375;SDS011;68846;53.150;18.136;2023-04-15T05:52:04;15.30;;;7.40;;
79375;SDS011;68846;53.150;18.136;2023-04-15T05:54:31;7.70;;;6.20;;
79375;SDS011;68846;53.150;18.136;2023-04-15T05:56:58;17.10;;;7.70;;
79375;SDS011;68846;53.150;18.136;2023-04-15T05:59:25;13.70;;;6.90;;
79375;SDS011;68846;53.150;18.136;2023-04-15T06:01:52;11.80;;;7.70;;
79375;SDS011;68846;53.150;18.136;2023-04-15T06:06:46;10.90;;;7.60;;
79375;SDS011;68846;53.150;18.136;2023-04-15T06:09:13;9.40;;;7.00;;
79375;SDS011;68846;53.150;18.136;2023-04-15T06:11:40;9.40;;;6.60;;
79375;SDS011;68846;53.150;18.136;2023-04-15T06:16:33;11.20;;;7.10;;
79375;SDS011;68846;53.150;18.136;2023-04-15T06:19:02;10.80;;;7.20;;
79375;SDS011;68846;53.150;18.136;2023-04-15T06:21:29;10.20;;;7.60;;
79375;SDS011;68846;53.150;18.136;2023-04-15T06:23:58;10.90;;;7.60;;
79375;SDS011;68846;53.150;18.136;2023-04-15T06:26:28;10.20;;;8.20;;
79375;SDS011;68846;53.150;18.136;2023-04-15T06:28:55;10.50;;;7.50;;
79375;SDS011;68846;53.150;18.136;2023-04-15T06:31:22;11.20;;;7.30;;
79375;SDS011;68846;53.150;18.136;2023-04-15T06:33:49;10.70;;;8.20;;
79375;SDS011;68846;53.150;18.136;2023-04-15T06:38:42;10.70;;;8.00;;
79375;SDS011;68846;53.150;18.136;2023-04-15T06:41:09;12.00;;;7.70;;
79375;SDS011;68846;53.150;18.136;2023-04-15T06:43:37;13.20;;;8.60;;
79375;SDS011;68846;53.150;18.136;2023-04-15T06:46:04;10.80;;;8.30;;
79375;SDS011;68846;53.150;18.136;2023-04-15T06:48:31;10.30;;;9.00;;
79375;SDS011;68846;53.150;18.136;2023-04-15T06:50:58;13.30;;;8.00;;
79375;SDS011;68846;53.150;18.136;2023-04-15T06:53:25;11.80;;;7.50;;
79375;SDS011;68846;53.150;18.136;2023-04-15T06:55:54;10.40;;;7.60;;
79375;SDS011;68846;53.150;18.136;2023-04-15T06:58:21;11.30;;;7.30;;
79375;SDS011;68846;53.150;18.136;2023-04-15T07:00:48;10.60;;;6.50;;
79375;SDS011;68846;53.150;18.136;2023-04-15T07:03:15;13.00;;;8.00;;
79375;SDS011;68846;53.150;18.136;2023-04-15T07:08:09;9.50;;;7.40;;
79375;SDS011;68846;53.150;18.136;2023-04-15T07:13:02;8.90;;;6.50;;
79375;SDS011;68846;53.150;18.136;2023-04-15T07:15:29;13.10;;;8.10;;
79375;SDS011;68846;53.150;18.136;2023-04-15T07:20:23;8.40;;;6.90;;
79375;SDS011;68846;53.150;18.136;2023-04-15T07:22:51;9.70;;;7.50;;
79375;SDS011;68846;53.150;18.136;2023-04-15T07:25:18;11.40;;;7.90;;
79375;SDS011;68846;53.150;18.136;2023-04-15T07:27:45;10.30;;;7.40;;
79375;SDS011;68846;53.150;18.136;2023-04-15T07:30:12;9.60;;;7.60;;
79375;SDS011;68846;53.150;18.136;2023-04-15T07:32:40;11.10;;;7.70;;
79375;SDS011;68846;53.150;18.136;2023-04-15T07:35:07;10.50;;;7.70;;
79375;SDS011;68846;53.150;18.136;2023-04-15T07:37:35;11.20;;;7.60;;
79375;SDS011;68846;53.150;18.136;2023-04-15T07:42:32;14.60;;;8.60;;
79375;SDS011;68846;53.150;18.136;2023-04-15T07:45:00;10.70;;;7.90;;
79375;SDS011;68846;53.150;18.136;2023-04-15T07:47:27;10.20;;;8.20;;
79375;SDS011;68846;53.150;18.136;2023-04-15T07:49:54;9.80;;;7.80;;
79375;SDS011;68846;53.150;18.136;2023-04-15T07:54:48;14.30;;;7.90;;
79375;SDS011;68846;53.150;18.136;2023-04-15T07:57:15;11.40;;;8.30;;
79375;SDS011;68846;53.150;18.136;2023-04-15T07:59:44;11.80;;;8.80;;
79375;SDS011;68846;53.150;18.136;2023-04-15T08:02:11;12.40;;;9.10;;
79375;SDS011;68846;53.150;18.136;2023-04-15T08:04:38;11.70;;;8.10;;
79375;SDS011;68846;53.150;18.136;2023-04-15T08:07:06;10.40;;;8.30;;
79375;SDS011;68846;53.150;18.136;2023-04-15T08:09:34;10.30;;;7.30;;
79375;SDS011;68846;53.150;18.136;2023-04-15T08:12:01;10.30;;;7.40;;
79375;SDS011;68846;53.150;18.136;2023-04-15T08:14:29;9.90;;;7.10;;
79375;SDS011;68846;53.150;18.136;2023-04-15T08:19:22;11.00;;;7.10;;
79375;SDS011;68846;53.150;18.136;2023-04-15T08:21:50;10.60;;;8.20;;
79375;SDS011;68846;53.150;18.136;2023-04-15T08:24:17;12.90;;;8.10;;
79375;SDS011;68846;53.150;18.136;2023-04-15T08:26:45;14.00;;;8.30;;
79375;SDS011;68846;53.150;18.136;2023-04-15T08:29:13;12.80;;;7.70;;
79375;SDS011;68846;53.150;18.136;2023-04-15T08:34:07;9.30;;;8.00;;
79375;SDS011;68846;53.150;18.136;2023-04-15T08:36:34;11.10;;;8.00;;
79375;SDS011;68846;53.150;18.136;2023-04-15T08:41:39;10.40;;;7.80;;
79375;SDS011;68846;53.150;18.136;2023-04-15T08:44:13;10.00;;;7.30;;
79375;SDS011;68846;53.150;18.136;2023-04-15T08:46:40;11.80;;;8.00;;
79375;SDS011;68846;53.150;18.136;2023-04-15T08:49:11;10.80;;;7.70;;
79375;SDS011;68846;53.150;18.136;2023-04-15T08:51:39;10.50;;;7.50;;
79375;SDS011;68846;53.150;18.136;2023-04-15T08:54:09;12.10;;;8.60;;
79375;SDS011;68846;53.150;18.136;2023-04-15T08:56:37;13.10;;;7.30;;
79375;SDS011;68846;53.150;18.136;2023-04-15T08:59:04;11.60;;;7.50;;
79375;SDS011;68846;53.150;18.136;2023-04-15T09:01:32;11.10;;;7.80;;
79375;SDS011;68846;53.150;18.136;2023-04-15T09:04:00;9.60;;;6.90;;
79375;SDS011;68846;53.150;18.136;2023-04-15T09:06:29;11.00;;;7.60;;
79375;SDS011;68846;53.150;18.136;2023-04-15T09:08:56;9.80;;;7.30;;
79375;SDS011;68846;53.150;18.136;2023-04-15T09:11:23;11.40;;;8.20;;
79375;SDS011;68846;53.150;18.136;2023-04-15T09:13:50;18.80;;;9.00;;
79375;SDS011;68846;53.150;18.136;2023-04-15T09:16:17;9.80;;;7.60;;
79375;SDS011;68846;53.150;18.136;2023-04-15T09:18:44;12.10;;;7.60;;
79375;SDS011;68846;53.150;18.136;2023-04-15T09:21:15;11.60;;;7.60;;
79375;SDS011;68846;53.150;18.136;2023-04-15T09:26:33;10.60;;;7.50;;
79375;SDS011;68846;53.150;18.136;2023-04-15T09:29:05;13.50;;;7.20;;
79375;SDS011;68846;53.150;18.136;2023-04-15T09:31:35;10.20;;;7.10;;
79375;SDS011;68846;53.150;18.136;2023-04-15T09:34:03;10.00;;;7.90;;
79375;SDS011;68846;53.150;18.136;2023-04-15T09:39:12;11.70;;;7.80;;
79375;SDS011;68846;53.150;18.136;2023-04-15T09:41:39;12.40;;;8.20;;
79375;SDS011;68846;53.150;18.136;2023-04-15T09:44:06;11.50;;;7.50;;
79375;SDS011;68846;53.150;18.136;2023-04-15T09:46:48;13.40;;;7.20;;
79375;SDS011;68846;53.150;18.136;2023-04-15T09:49:15;9.80;;;7.40;;
79375;SDS011;68846;53.150;18.136;2023-04-15T09:51:43;8.70;;;6.90;;
79375;SDS011;68846;53.150;18.136;2023-04-15T09:54:10;9.10;;;7.20;;
79375;SDS011;68846;53.150;18.136;2023-04-15T09:59:07;10.50;;;6.90;;
79375;SDS011;68846;53.150;18.136;2023-04-15T10:01:35;11.70;;;7.50;;
79375;SDS011;68846;53.150;18.136;2023-04-15T10:04:03;12.60;;;8.00;;
79375;SDS011;68846;53.150;18.136;2023-04-15T10:06:30;11.70;;;7.40;;
79375;SDS011;68846;53.150;18.136;2023-04-15T10:08:59;10.70;;;7.40;;
79375;SDS011;68846;53.150;18.136;2023-04-15T10:11:29;10.00;;;6.60;;
79375;SDS011;68846;53.150;18.136;2023-04-15T10:13:57;10.20;;;7.00;;
79375;SDS011;68846;53.150;18.136;2023-04-15T10:16:25;10.90;;;7.40;;
79375;SDS011;68846;53.150;18.136;2023-04-15T10:18:56;11.90;;;7.60;;
79375;SDS011;68846;53.150;18.136;2023-04-15T10:21:27;11.00;;;7.70;;
79375;SDS011;68846;53.150;18.136;2023-04-15T10:23:54;10.70;;;7.80;;
79375;SDS011;68846;53.150;18.136;2023-04-15T10:26:22;12.30;;;8.10;;
79375;SDS011;68846;53.150;18.136;2023-04-15T10:28:50;10.50;;;8.10;;
79375;SDS011;68846;53.150;18.136;2023-04-15T10:31:19;10.20;;;7.00;;
79375;SDS011;68846;53.150;18.136;2023-04-15T10:33:47;10.00;;;6.50;;
79375;SDS011;68846;53.150;18.136;2023-04-15T10:36:15;9.90;;;6.40;;
79375;SDS011;68846;53.150;18.136;2023-04-15T10:38:45;10.60;;;7.30;;
79375;SDS011;68846;53.150;18.136;2023-04-15T10:43:44;11.60;;;7.80;;
79375;SDS011;68846;53.150;18.136;2023-04-15T10:46:12;10.60;;;7.70;;
79375;SDS011;68846;53.150;18.136;2023-04-15T10:48:45;13.10;;;7.10;;
79375;SDS011;68846;53.150;18.136;2023-04-15T10:51:13;10.90;;;7.40;;
79375;SDS011;68846;53.150;18.136;2023-04-15T10:56:08;9.20;;;5.60;;
79375;SDS011;68846;53.150;18.136;2023-04-15T10:58:40;15.60;;;6.40;;
79375;SDS011;68846;53.150;18.136;2023-04-15T11:01:08;9.80;;;6.60;;
79375;SDS011;68846;53.150;18.136;2023-04-15T11:03:36;11.00;;;6.90;;
79375;SDS011;68846;53.150;18.136;2023-04-15T11:06:09;10.50;;;7.00;;
79375;SDS011;68846;53.150;18.136;2023-04-15T11:08:53;11.10;;;7.00;;
79375;SDS011;68846;53.150;18.136;2023-04-15T11:11:22;9.70;;;6.60;;
79375;SDS011;68846;53.150;18.136;2023-04-15T11:13:50;9.30;;;7.20;;
79375;SDS011;68846;53.150;18.136;2023-04-15T11:16:19;10.90;;;6.50;;
79375;SDS011;68846;53.150;18.136;2023-04-15T11:21:23;9.10;;;5.50;;
79375;SDS011;68846;53.150;18.136;2023-04-15T11:23:51;8.20;;;6.00;;
79375;SDS011;68846;53.150;18.136;2023-04-15T11:28:51;8.80;;;6.00;;
79375;SDS011;68846;53.150;18.136;2023-04-15T11:31:18;8.30;;;6.20;;
79375;SDS011;68846;53.150;18.136;2023-04-15T11:33:52;8.00;;;6.40;;
79375;SDS011;68846;53.150;18.136;2023-04-15T11:36:24;9.70;;;7.00;;
79375;SDS011;68846;53.150;18.136;2023-04-15T11:38:53;9.30;;;6.10;;
79375;SDS011;68846;53.150;18.136;2023-04-15T11:41:22;7.80;;;5.70;;
79375;SDS011;68846;53.150;18.136;2023-04-15T11:43:49;9.70;;;6.30;;
79375;SDS011;68846;53.150;18.136;2023-04-15T11:46:17;9.90;;;6.40;;
79375;SDS011;68846;53.150;18.136;2023-04-15T11:48:45;9.60;;;6.40;;
79375;SDS011;68846;53.150;18.136;2023-04-15T11:51:12;9.40;;;6.50;;
79375;SDS011;68846;53.150;18.136;2023-04-15T11:56:07;9.40;;;6.40;;
79375;SDS011;68846;53.150;18.136;2023-04-15T11:58:36;9.40;;;6.60;;
79375;SDS011;68846;53.150;18.136;2023-04-15T12:01:05;9.70;;;6.40;;
79375;SDS011;68846;53.150;18.136;2023-04-15T12:06:05;10.80;;;6.90;;
79375;SDS011;68846;53.150;18.136;2023-04-15T12:14:04;10.00;;;7.00;;
79375;SDS011;68846;53.150;18.136;2023-04-15T12:16:39;10.40;;;7.30;;
79375;SDS011;68846;53.150;18.136;2023-04-15T12:19:15;11.40;;;7.50;;
79375;SDS011;68846;53.150;18.136;2023-04-15T12:21:56;12.80;;;8.10;;
79375;SDS011;68846;53.150;18.136;2023-04-15T12:24:28;10.90;;;7.60;;
79375;SDS011;68846;53.150;18.136;2023-04-15T12:26:59;10.50;;;6.90;;
79375;SDS011;68846;53.150;18.136;2023-04-15T12:29:28;8.90;;;7.20;;
79375;SDS011;68846;53.150;18.136;2023-04-15T12:31:57;8.40;;;6.20;;
79375;SDS011;68846;53.150;18.136;2023-04-15T12:34:36;9.00;;;6.10;;
79375;SDS011;68846;53.150;18.136;2023-04-15T12:37:17;10.60;;;7.10;;
79375;SDS011;68846;53.150;18.136;2023-04-15T12:39:46;11.20;;;7.80;;
79375;SDS011;68846;53.150;18.136;2023-04-15T12:42:14;10.80;;;7.10;;
79375;SDS011;68846;53.150;18.136;2023-04-15T12:44:42;8.30;;;6.30;;
79375;SDS011;68846;53.150;18.136;2023-04-15T12:47:10;9.80;;;6.70;;
79375;SDS011;68846;53.150;18.136;2023-04-15T12:49:38;9.40;;;6.20;;
79375;SDS011;68846;53.150;18.136;2023-04-15T12:52:05;9.10;;;5.80;;
79375;SDS011;68846;53.150;18.136;2023-04-15T12:54:32;7.40;;;5.30;;
79375;SDS011;68846;53.150;18.136;2023-04-15T12:57:00;8.30;;;6.30;;
79375;SDS011;68846;53.150;18.136;2023-04-15T12:59:28;9.80;;;6.50;;
79375;SDS011;68846;53.150;18.136;2023-04-15T13:01:55;9.60;;;6.50;;
79375;SDS011;68846;53.150;18.136;2023-04-15T13:04:22;9.50;;;6.60;;
79375;SDS011;68846;53.150;18.136;2023-04-15T13:06:49;9.10;;;6.60;;
79375;SDS011;68846;53.150;18.136;2023-04-15T13:11:44;9.20;;;6.20;;
79375;SDS011;68846;53.150;18.136;2023-04-15T13:14:11;7.40;;;5.40;;
79375;SDS011;68846;53.150;18.136;2023-04-15T13:16:38;9.30;;;6.40;;
79375;SDS011;68846;53.150;18.136;2023-04-15T13:19:05;9.80;;;6.20;;
79375;SDS011;68846;53.150;18.136;2023-04-15T13:21:32;8.30;;;6.10;;
79375;SDS011;68846;53.150;18.136;2023-04-15T13:24:00;9.80;;;6.70;;
79375;SDS011;68846;53.150;18.136;2023-04-15T13:26:32;10.30;;;7.30;;
79375;SDS011;68846;53.150;18.136;2023-04-15T13:31:28;7.80;;;6.20;;
79375;SDS011;68846;53.150;18.136;2023-04-15T13:33:55;7.70;;;5.60;;
79375;SDS011;68846;53.150;18.136;2023-04-15T13:36:22;7.30;;;5.40;;
79375;SDS011;68846;53.150;18.136;2023-04-15T13:38:50;8.30;;;5.60;;
79375;SDS011;68846;53.150;18.136;2023-04-15T13:41:18;8.10;;;5.70;;
79375;SDS011;68846;53.150;18.136;2023-04-15T13:43:48;10.60;;;6.10;;
79375;SDS011;68846;53.150;18.136;2023-04-15T13:46:15;8.20;;;5.20;;
79375;SDS011;68846;53.150;18.136;2023-04-15T13:48:42;7.50;;;5.20;;
79375;SDS011;68846;53.150;18.136;2023-04-15T13:53:36;7.70;;;5.80;;
79375;SDS011;68846;53.150;18.136;2023-04-15T13:58:29;8.00;;;5.30;;
79375;SDS011;68846;53.150;18.136;2023-04-15T14:00:56;8.30;;;5.80;;
79375;SDS011;68846;53.150;18.136;2023-04-15T14:03:23;8.20;;;5.30;;
79375;SDS011;68846;53.150;18.136;2023-04-15T14:08:21;7.10;;;5.30;;
79375;SDS011;68846;53.150;18.136;2023-04-15T14:10:50;6.70;;;4.80;;
79375;SDS011;68846;53.150;18.136;2023-04-15T14:13:17;7.30;;;4.50;;
79375;SDS011;68846;53.150;18.136;2023-04-15T14:15:45;7.80;;;5.10;;
79375;SDS011;68846;53.150;18.136;2023-04-15T14:18:12;7.10;;;5.30;;
79375;SDS011;68846;53.150;18.136;2023-04-15T14:20:40;8.30;;;5.80;;
79375;SDS011;68846;53.150;18.136;2023-04-15T14:25:58;6.70;;;5.00;;
79375;SDS011;68846;53.150;18.136;2023-04-15T14:35:23;7.00;;;4.40;;
79375;SDS011;68846;53.150;18.136;2023-04-15T14:51:23;6.80;;;4.70;;
79375;SDS011;68846;53.150;18.136;2023-04-15T14:56:16;5.70;;;4.60;;
79375;SDS011;68846;53.150;18.136;2023-04-15T14:58:43;6.00;;;4.50;;
79375;SDS011;68846;53.150;18.136;2023-04-15T15:03:37;7.20;;;5.50;;
79375;SDS011;68846;53.150;18.136;2023-04-15T15:06:04;7.10;;;4.70;;
79375;SDS011;68846;53.150;18.136;2023-04-15T15:08:31;5.80;;;4.50;;
79375;SDS011;68846;53.150;18.136;2023-04-15T15:10:58;7.60;;;5.30;;
79375;SDS011;68846;53.150;18.136;2023-04-15T15:13:25;8.30;;;5.50;;
79375;SDS011;68846;53.150;18.136;2023-04-15T15:18:19;7.50;;;5.30;;
79375;SDS011;68846;53.150;18.136;2023-04-15T15:20:47;6.40;;;5.10;;
79375;SDS011;68846;53.150;18.136;2023-04-15T15:23:14;7.80;;;5.30;;
79375;SDS011;68846;53.150;18.136;2023-04-15T15:25:42;7.80;;;4.90;;
79375;SDS011;68846;53.150;18.136;2023-04-15T15:28:09;7.70;;;5.10;;
79375;SDS011;68846;53.150;18.136;2023-04-15T15:30:36;7.40;;;4.90;;
79375;SDS011;68846;53.150;18.136;2023-04-15T15:35:30;6.70;;;4.70;;
79375;SDS011;68846;53.150;18.136;2023-04-15T15:37:58;6.70;;;4.70;;
79375;SDS011;68846;53.150;18.136;2023-04-15T15:40:26;6.30;;;4.50;;
79375;SDS011;68846;53.150;18.136;2023-04-15T15:42:53;6.80;;;5.40;;
79375;SDS011;68846;53.150;18.136;2023-04-15T15:45:20;7.00;;;4.50;;
79375;SDS011;68846;53.150;18.136;2023-04-15T15:47:47;7.20;;;4.70;;
79375;SDS011;68846;53.150;18.136;2023-04-15T15:50:15;5.90;;;5.10;;
79375;SDS011;68846;53.150;18.136;2023-04-15T15:52:42;7.70;;;4.70;;
79375;SDS011;68846;53.150;18.136;2023-04-15T15:55:09;5.70;;;4.10;;
79375;SDS011;68846;53.150;18.136;2023-04-15T15:57:36;6.00;;;4.80;;
79375;SDS011;68846;53.150;18.136;2023-04-15T16:00:03;6.30;;;5.10;;
79375;SDS011;68846;53.150;18.136;2023-04-15T16:02:31;5.90;;;4.70;;
79375;SDS011;68846;53.150;18.136;2023-04-15T16:04:58;6.30;;;4.80;;
79375;SDS011;68846;53.150;18.136;2023-04-15T16:07:26;6.30;;;4.70;;
79375;SDS011;68846;53.150;18.136;2023-04-15T16:09:53;8.10;;;4.70;;
79375;SDS011;68846;53.150;18.136;2023-04-15T16:14:47;5.50;;;4.20;;
79375;SDS011;68846;53.150;18.136;2023-04-15T16:17:14;5.60;;;4.10;;
79375;SDS011;68846;53.150;18.136;2023-04-15T16:19:41;4.70;;;3.70;;
79375;SDS011;68846;53.150;18.136;2023-04-15T16:24:36;5.30;;;4.10;;
79375;SDS011;68846;53.150;18.136;2023-04-15T16:27:02;7.30;;;3.90;;
79375;SDS011;68846;53.150;18.136;2023-04-15T16:31:56;5.00;;;3.80;;
79375;SDS011;68846;53.150;18.136;2023-04-15T16:34:23;5.90;;;4.00;;
79375;SDS011;68846;53.150;18.136;2023-04-15T16:36:50;6.80;;;3.90;;
79375;SDS011;68846;53.150;18.136;2023-04-15T16:39:18;7.00;;;4.20;;
79375;SDS011;68846;53.150;18.136;2023-04-15T16:41:45;5.70;;;3.90;;
79375;SDS011;68846;53.150;18.136;2023-04-15T16:46:38;5.60;;;4.50;;
79375;SDS011;68846;53.150;18.136;2023-04-15T16:49:05;6.00;;;4.20;;
79375;SDS011;68846;53.150;18.136;2023-04-15T16:53:59;6.10;;;4.00;;
79375;SDS011;68846;53.150;18.136;2023-04-15T16:56:52;5.60;;;4.10;;
79375;SDS011;68846;53.150;18.136;2023-04-15T16:59:19;5.70;;;4.30;;
79375;SDS011;68846;53.150;18.136;2023-04-15T17:01:47;5.40;;;4.10;;
79375;SDS011;68846;53.150;18.136;2023-04-15T17:06:40;6.20;;;4.40;;